createdAt,value
2024-04-21T00:03:06.276Z,4.18
2024-04-21T00:08:10.548Z,4.16
2024-04-21T00:13:13.473Z,4.12
2024-04-21T00:18:16.821Z,4.08
2024-04-21T00:23:19.721Z,4.05
2024-04-21T00:28:22.790Z,4.03
2024-04-21T00:33:25.872Z,3.98
2024-04-21T00:38:28.983Z,3.91
2024-04-21T00:43:32.048Z,3.84
2024-04-21T00:48:35.521Z,3.82
2024-04-21T00:53:39.437Z,3.82
2024-04-21T00:58:42.845Z,3.81
2024-04-21T01:03:46.858Z,3.78
2024-04-21T01:08:49.904Z,3.72
2024-04-21T01:13:52.877Z,3.68
2024-04-21T01:18:56.162Z,3.65
2024-04-21T01:23:59.482Z,3.59
2024-04-21T01:29:02.287Z,3.56
2024-04-21T01:34:05.274Z,3.51
2024-04-21T01:39:08.231Z,3.47
2024-04-21T01:44:11.329Z,3.44
2024-04-21T01:49:14.389Z,3.37
2024-04-21T01:54:17.195Z,3.30
2024-04-21T01:59:20.085Z,3.24
2024-04-21T02:04:23.705Z,3.23
2024-04-21T02:09:27.442Z,3.18
2024-04-21T02:14:30.410Z,3.20
2024-04-21T02:19:34.482Z,3.25
2024-04-21T02:24:42.658Z,3.24
2024-04-21T02:29:46.653Z,3.24
2024-04-21T02:34:49.658Z,3.17
2024-04-21T02:39:52.554Z,3.12
2024-04-21T02:44:56.295Z,3.10
2024-04-21T02:49:59.313Z,3.05
2024-04-21T02:55:02.292Z,2.96
2024-04-21T03:00:07.013Z,2.89
2024-04-21T03:05:10.655Z,2.82
2024-04-21T03:10:13.545Z,2.79
2024-04-21T03:15:16.757Z,2.76
2024-04-21T03:20:20.651Z,2.71
2024-04-21T03:25:23.631Z,2.66
2024-04-21T03:30:26.996Z,2.58
2024-04-21T03:35:29.954Z,2.55
2024-04-21T03:40:32.823Z,2.53
2024-04-21T03:45:35.706Z,2.55
2024-04-21T03:50:38.912Z,2.58
2024-04-21T03:55:41.838Z,2.64
2024-04-21T04:00:47.380Z,2.68
2024-04-21T04:05:50.357Z,2.72
2024-04-21T04:10:53.171Z,2.75
2024-04-21T04:15:56.115Z,2.72
2024-04-21T04:20:59.566Z,2.71
2024-04-21T04:26:02.571Z,2.71
2024-04-21T04:31:05.615Z,2.63
2024-04-21T04:36:09.039Z,2.58
2024-04-21T04:41:11.915Z,2.57
2024-04-21T04:46:14.783Z,2.58
2024-04-21T04:51:17.795Z,2.56
2024-04-21T04:56:20.765Z,2.54
2024-04-21T05:01:23.879Z,2.53
2024-04-21T05:06:26.898Z,2.51
2024-04-21T05:11:29.840Z,2.52
2024-04-21T05:16:32.629Z,2.54
2024-04-21T05:21:35.774Z,2.55
2024-04-21T05:26:39.779Z,2.53
2024-04-21T05:31:42.982Z,2.50
2024-04-21T05:36:45.971Z,2.53
2024-04-21T05:41:48.892Z,2.55
2024-04-21T05:46:51.752Z,2.54
2024-04-21T05:51:54.682Z,2.55
2024-04-21T05:56:57.661Z,2.56
2024-04-21T06:02:00.602Z,2.58
2024-04-21T06:07:03.695Z,2.62
2024-04-21T06:12:08.400Z,2.66
2024-04-21T06:17:11.281Z,2.65
2024-04-21T06:22:15.068Z,2.64
2024-04-21T06:27:17.916Z,2.64
2024-04-21T06:32:21.227Z,2.65
2024-04-21T06:37:24.157Z,2.66
2024-04-21T06:42:27.010Z,2.66
2024-04-21T06:47:29.970Z,2.63
2024-04-21T06:52:32.904Z,2.61
2024-04-21T06:57:35.729Z,2.64
2024-04-21T07:02:38.800Z,2.68
2024-04-21T07:07:41.757Z,2.69
2024-04-21T07:12:44.559Z,2.74
2024-04-21T07:17:47.571Z,2.79
2024-04-21T07:22:50.452Z,2.82
2024-04-21T07:27:53.368Z,2.81
2024-04-21T07:32:57.235Z,2.79
2024-04-21T07:38:02.352Z,2.79
2024-04-21T07:43:06.468Z,2.76
2024-04-21T07:48:09.994Z,2.78
2024-04-21T07:53:12.887Z,2.83
2024-04-21T07:58:15.746Z,2.92
2024-04-21T08:03:18.672Z,3.01
2024-04-21T08:08:21.629Z,3.11
2024-04-21T08:13:24.877Z,3.15
2024-04-21T08:18:27.787Z,3.17
2024-04-21T08:23:31.304Z,3.20
2024-04-21T08:28:34.190Z,3.28
2024-04-21T08:33:37.342Z,3.36
2024-04-21T08:38:40.252Z,3.40
2024-04-21T08:43:43.510Z,3.50
2024-04-21T08:48:48.330Z,3.59
2024-04-21T08:53:51.562Z,3.66
2024-04-21T08:58:56.762Z,3.68
2024-04-21T09:04:01.165Z,3.66
2024-04-21T09:09:05.210Z,3.63
2024-04-21T09:14:08.507Z,3.61
2024-04-21T09:19:11.598Z,3.55
2024-04-21T09:24:18.802Z,3.52
2024-04-21T09:29:21.901Z,3.54
2024-04-21T09:34:25.192Z,3.55
2024-04-21T09:39:29.135Z,3.59
2024-04-21T09:44:35.058Z,3.63
2024-04-21T09:49:40.132Z,3.71
2024-04-21T09:54:43.853Z,3.84
2024-04-21T09:59:48.689Z,3.95
2024-04-21T10:05:00.358Z,4.08
2024-04-21T10:10:10.091Z,4.25
2024-04-21T10:15:17.267Z,4.43
2024-04-21T10:20:30.858Z,4.53
2024-04-21T10:25:34.429Z,4.54
2024-04-21T10:30:38.763Z,4.57
2024-04-21T10:35:43.860Z,4.55
2024-04-21T10:40:48.384Z,4.57
2024-04-21T10:45:55.576Z,4.54
2024-04-21T10:50:59.307Z,4.49
2024-04-21T10:56:02.236Z,4.48
2024-04-21T11:01:05.633Z,4.46
2024-04-21T11:06:09.559Z,4.45
2024-04-21T11:11:13.661Z,4.42
2024-04-21T11:16:20.878Z,4.36
2024-04-21T11:21:27.582Z,4.32
2024-04-21T11:26:34.678Z,4.31
2024-04-21T11:31:37.852Z,4.31
2024-04-21T11:36:41.942Z,4.33
2024-04-21T11:41:45.710Z,4.33
2024-04-21T11:46:51.885Z,4.33
2024-04-21T11:51:55.530Z,4.33
2024-04-21T11:56:59.334Z,4.33
2024-04-21T12:02:02.280Z,4.34
2024-04-21T12:07:05.593Z,4.35
2024-04-21T12:12:08.759Z,4.35
2024-04-21T12:17:17.388Z,4.36
2024-04-21T12:22:20.429Z,4.37
2024-04-21T12:27:24.641Z,4.41
2024-04-21T12:32:27.615Z,4.45
2024-04-21T12:37:31.047Z,4.48
2024-04-21T12:42:34.323Z,4.50
2024-04-21T12:47:38.975Z,4.56
2024-04-21T12:52:43.332Z,4.65
2024-04-21T12:57:46.256Z,4.71
2024-04-21T13:02:49.269Z,4.69
2024-04-21T13:07:52.354Z,4.71
2024-04-21T13:12:55.246Z,4.76
2024-04-21T13:17:58.324Z,4.82
2024-04-21T13:23:01.250Z,4.85
2024-04-21T13:28:05.273Z,4.90
2024-04-21T13:33:08.335Z,4.93
2024-04-21T13:38:12.175Z,4.96
2024-04-21T13:43:15.453Z,4.96
2024-04-21T13:48:18.831Z,4.99
2024-04-21T13:53:22.394Z,5.04
2024-04-21T13:58:25.794Z,5.05
2024-04-21T14:03:28.992Z,5.02
2024-04-21T14:08:31.970Z,5.04
2024-04-21T14:13:36.225Z,5.08
2024-04-21T14:18:39.184Z,5.04
2024-04-21T14:23:42.435Z,4.97
2024-04-21T14:28:46.685Z,4.95
2024-04-21T14:33:50.510Z,4.92
2024-04-21T14:38:53.459Z,4.89
2024-04-21T14:43:56.755Z,4.92
2024-04-21T14:48:59.864Z,4.91
2024-04-21T14:54:02.790Z,4.87
2024-04-21T14:59:05.898Z,4.86
2024-04-21T15:04:10.318Z,4.80
2024-04-21T15:09:13.468Z,4.80
2024-04-21T15:14:16.590Z,4.78
2024-04-21T15:19:19.737Z,4.80
2024-04-21T15:24:22.824Z,4.81
2024-04-21T15:29:26.634Z,4.79
2024-04-21T15:34:29.682Z,4.78
2024-04-21T15:39:32.621Z,4.77
2024-04-21T15:44:35.617Z,4.78
2024-04-21T15:49:40.140Z,4.79
2024-04-21T15:54:44.095Z,4.79
2024-04-21T15:59:47.107Z,4.78
2024-04-21T16:05:17.283Z,4.76
2024-04-21T16:10:20.612Z,4.70
2024-04-21T16:15:23.633Z,4.62
2024-04-21T16:20:26.618Z,4.55
2024-04-21T16:25:32.289Z,4.49
2024-04-21T16:30:36.454Z,4.52
2024-04-21T16:35:40.689Z,4.51
2024-04-21T16:40:44.897Z,4.47
2024-04-21T16:45:49.244Z,4.47
2024-04-21T16:50:54.012Z,4.44
2024-04-21T16:55:58.286Z,4.37
2024-04-21T17:01:02.506Z,4.32
2024-04-21T17:06:10.715Z,4.32
2024-04-21T17:11:15.313Z,4.34
2024-04-21T17:16:18.738Z,4.35
2024-04-21T17:21:21.613Z,4.29
2024-04-21T17:26:24.708Z,4.29
2024-04-21T17:31:27.701Z,4.31
2024-04-21T17:36:30.608Z,4.34
2024-04-21T17:41:35.016Z,4.34
2024-04-21T17:46:38.495Z,4.34
2024-04-21T17:51:41.701Z,4.32
2024-04-21T17:56:45.182Z,4.33
2024-04-21T18:01:49.081Z,4.36
2024-04-21T18:06:52.040Z,4.38
2024-04-21T18:11:55.964Z,4.40
2024-04-21T18:17:04.172Z,4.37
2024-04-21T18:22:12.560Z,4.35
2024-04-21T18:27:15.528Z,4.33
2024-04-21T18:32:18.611Z,4.32
2024-04-21T18:37:21.677Z,4.29
2024-04-21T18:42:24.588Z,4.25
2024-04-21T18:47:29.451Z,4.24
2024-04-21T18:52:35.930Z,4.21
2024-04-21T18:57:40.830Z,4.19
2024-04-21T19:02:44.061Z,4.16
2024-04-21T19:07:47.268Z,4.16
2024-04-21T19:12:51.441Z,4.16
2024-04-21T19:17:55.628Z,4.18
2024-04-21T19:23:00.554Z,4.18
2024-04-21T19:28:03.780Z,4.20
2024-04-21T19:33:07.166Z,4.21
2024-04-21T19:38:10.253Z,4.23
2024-04-21T19:43:13.162Z,4.22
2024-04-21T19:48:16.209Z,4.23
2024-04-21T19:53:19.370Z,4.24
2024-04-21T19:58:23.729Z,4.25
2024-04-21T20:03:26.912Z,4.27
2024-04-21T20:08:29.904Z,4.27
2024-04-21T20:13:32.830Z,4.27
2024-04-21T20:18:35.711Z,4.27
2024-04-21T20:23:38.651Z,4.28
2024-04-21T20:28:43.157Z,4.28
2024-04-21T20:33:47.277Z,4.29
2024-04-21T20:38:53.422Z,4.30
2024-04-21T20:43:56.363Z,4.29
2024-04-21T20:48:59.218Z,4.29
2024-04-21T20:54:02.326Z,4.28
2024-04-21T20:59:05.332Z,4.27
2024-04-21T21:04:11.388Z,4.24
2024-04-21T21:09:14.854Z,4.24
2024-04-21T21:14:17.686Z,4.23
2024-04-21T21:19:21.040Z,4.21
2024-04-21T21:24:24.261Z,4.18
2024-04-21T21:29:27.282Z,4.16
2024-04-21T21:34:30.177Z,4.11
2024-04-21T21:39:33.095Z,4.08
2024-04-21T21:44:36.142Z,4.07
2024-04-21T21:49:41.042Z,4.05
2024-04-21T21:54:44.403Z,4.04
2024-04-21T21:59:47.328Z,4.05
2024-04-21T22:04:50.597Z,4.04
2024-04-21T22:09:53.584Z,4.04
2024-04-21T22:14:56.467Z,4.04
2024-04-21T22:19:59.549Z,4.04
2024-04-21T22:25:02.494Z,4.04
2024-04-21T22:30:07.859Z,4.01
2024-04-21T22:35:10.801Z,3.95
2024-04-21T22:40:13.729Z,3.91
2024-04-21T22:45:18.078Z,3.92
2024-04-21T22:50:20.947Z,3.93
2024-04-21T22:55:23.918Z,3.89
2024-04-21T23:00:26.927Z,3.85
2024-04-21T23:05:30.188Z,3.79
2024-04-21T23:10:33.309Z,3.78
2024-04-21T23:15:36.469Z,3.80
2024-04-21T23:20:39.431Z,3.80
2024-04-21T23:25:42.470Z,3.74
2024-04-21T23:30:47.280Z,3.71
2024-04-21T23:35:50.184Z,3.68
2024-04-21T23:40:53.081Z,3.68
2024-04-21T23:45:56.046Z,3.68
2024-04-21T23:50:58.931Z,3.64
2024-04-21T23:56:01.864Z,3.59
